sensor_id;sensor_type;location;lat;lon;timestamp;P1;durP1;ratioP1;P2;durP2;ratioP2
59418;SDS011;45224;50.904;6.038;2023-07-13T00:00:53;2.08;;;0.70;;
59418;SDS011;45224;50.904;6.038;2023-07-13T00:02:24;2.55;;;0.95;;
59418;SDS011;45224;50.904;6.038;2023-07-13T00:03:57;2.67;;;0.80;;
59418;SDS011;45224;50.904;6.038;2023-07-13T00:05:28;5.30;;;0.90;;
59418;SDS011;45224;50.904;6.038;2023-07-13T00:07:02;2.30;;;0.80;;
59418;SDS011;45224;50.904;6.038;2023-07-13T00:08:32;3.33;;;0.90;;
59418;SDS011;45224;50.904;6.038;2023-07-13T00:10:04;3.25;;;0.80;;
59418;SDS011;45224;50.904;6.038;2023-07-13T00:11:35;3.78;;;0.90;;
59418;SDS011;45224;50.904;6.038;2023-07-13T00:13:05;3.38;;;0.80;;
59418;SDS011;45224;50.904;6.038;2023-07-13T00:14:36;2.83;;;0.80;;
59418;SDS011;45224;50.904;6.038;2023-07-13T00:16:07;1.60;;;0.70;;
59418;SDS011;45224;50.904;6.038;2023-07-13T00:17:38;1.58;;;0.70;;
59418;SDS011;45224;50.904;6.038;2023-07-13T00:19:09;3.40;;;0.80;;
59418;SDS011;45224;50.904;6.038;2023-07-13T00:20:41;3.17;;;0.70;;
59418;SDS011;45224;50.904;6.038;2023-07-13T00:22:14;2.17;;;0.80;;
59418;SDS011;45224;50.904;6.038;2023-07-13T00:25:15;2.08;;;0.90;;
59418;SDS011;45224;50.904;6.038;2023-07-13T00:26:46;2.92;;;0.90;;
59418;SDS011;45224;50.904;6.038;2023-07-13T00:28:16;6.32;;;1.10;;
59418;SDS011;45224;50.904;6.038;2023-07-13T00:29:48;2.00;;;0.77;;
59418;SDS011;45224;50.904;6.038;2023-07-13T00:31:18;4.80;;;0.90;;
59418;SDS011;45224;50.904;6.038;2023-07-13T00:32:50;1.77;;;0.80;;
59418;SDS011;45224;50.904;6.038;2023-07-13T00:34:21;3.67;;;0.80;;
59418;SDS011;45224;50.904;6.038;2023-07-13T00:35:53;1.63;;;0.70;;
59418;SDS011;45224;50.904;6.038;2023-07-13T00:37:24;5.00;;;0.90;;
59418;SDS011;45224;50.904;6.038;2023-07-13T00:38:55;1.58;;;1.10;;
59418;SDS011;45224;50.904;6.038;2023-07-13T00:40:25;4.78;;;0.90;;
59418;SDS011;45224;50.904;6.038;2023-07-13T00:41:56;2.00;;;0.80;;
59418;SDS011;45224;50.904;6.038;2023-07-13T00:43:27;2.38;;;0.65;;
59418;SDS011;45224;50.904;6.038;2023-07-13T00:46:32;2.00;;;0.88;;
59418;SDS011;45224;50.904;6.038;2023-07-13T00:48:03;4.10;;;1.00;;
59418;SDS011;45224;50.904;6.038;2023-07-13T00:49:34;4.03;;;0.90;;
59418;SDS011;45224;50.904;6.038;2023-07-13T00:51:05;3.20;;;0.63;;
59418;SDS011;45224;50.904;6.038;2023-07-13T00:52:37;5.32;;;0.80;;
59418;SDS011;45224;50.904;6.038;2023-07-13T00:54:13;1.38;;;0.75;;
59418;SDS011;45224;50.904;6.038;2023-07-13T00:55:48;2.70;;;0.70;;
59418;SDS011;45224;50.904;6.038;2023-07-13T00:57:21;2.25;;;0.80;;
59418;SDS011;45224;50.904;6.038;2023-07-13T00:58:52;3.63;;;0.80;;
59418;SDS011;45224;50.904;6.038;2023-07-13T01:00:23;5.78;;;1.05;;
59418;SDS011;45224;50.904;6.038;2023-07-13T01:01:56;2.97;;;0.80;;
59418;SDS011;45224;50.904;6.038;2023-07-13T01:03:26;2.67;;;0.80;;
59418;SDS011;45224;50.904;6.038;2023-07-13T01:04:58;4.88;;;1.17;;
59418;SDS011;45224;50.904;6.038;2023-07-13T01:06:28;3.90;;;1.10;;
59418;SDS011;45224;50.904;6.038;2023-07-13T01:08:00;3.60;;;0.75;;
59418;SDS011;45224;50.904;6.038;2023-07-13T01:09:32;3.78;;;0.82;;
59418;SDS011;45224;50.904;6.038;2023-07-13T01:11:02;2.83;;;0.90;;
59418;SDS011;45224;50.904;6.038;2023-07-13T01:12:33;4.93;;;1.00;;
59418;SDS011;45224;50.904;6.038;2023-07-13T01:14:03;6.50;;;0.82;;
59418;SDS011;45224;50.904;6.038;2023-07-13T01:15:41;3.63;;;1.00;;
59418;SDS011;45224;50.904;6.038;2023-07-13T01:17:15;3.42;;;1.00;;
59418;SDS011;45224;50.904;6.038;2023-07-13T01:18:46;3.83;;;1.00;;
59418;SDS011;45224;50.904;6.038;2023-07-13T01:20:17;3.55;;;0.80;;
59418;SDS011;45224;50.904;6.038;2023-07-13T01:21:51;3.50;;;0.93;;
59418;SDS011;45224;50.904;6.038;2023-07-13T01:23:22;3.10;;;1.00;;
59418;SDS011;45224;50.904;6.038;2023-07-13T01:24:54;4.57;;;1.05;;
59418;SDS011;45224;50.904;6.038;2023-07-13T01:26:25;2.75;;;1.08;;
59418;SDS011;45224;50.904;6.038;2023-07-13T01:27:56;2.17;;;0.70;;
59418;SDS011;45224;50.904;6.038;2023-07-13T01:29:26;4.05;;;1.20;;
59418;SDS011;45224;50.904;6.038;2023-07-13T01:30:57;2.35;;;0.80;;
59418;SDS011;45224;50.904;6.038;2023-07-13T01:32:29;2.63;;;0.90;;
59418;SDS011;45224;50.904;6.038;2023-07-13T01:34:01;4.60;;;1.20;;
59418;SDS011;45224;50.904;6.038;2023-07-13T01:35:31;5.95;;;0.75;;
59418;SDS011;45224;50.904;6.038;2023-07-13T01:37:02;2.75;;;0.90;;
59418;SDS011;45224;50.904;6.038;2023-07-13T01:38:34;5.20;;;0.90;;
59418;SDS011;45224;50.904;6.038;2023-07-13T01:40:05;3.35;;;0.90;;
59418;SDS011;45224;50.904;6.038;2023-07-13T01:41:38;2.55;;;0.70;;
59418;SDS011;45224;50.904;6.038;2023-07-13T01:43:08;4.25;;;0.90;;
59418;SDS011;45224;50.904;6.038;2023-07-13T01:44:40;4.53;;;1.10;;
59418;SDS011;45224;50.904;6.038;2023-07-13T01:46:11;3.63;;;0.80;;
59418;SDS011;45224;50.904;6.038;2023-07-13T01:47:42;2.75;;;0.90;;
59418;SDS011;45224;50.904;6.038;2023-07-13T01:49:12;4.57;;;1.00;;
59418;SDS011;45224;50.904;6.038;2023-07-13T01:50:43;2.00;;;0.82;;
59418;SDS011;45224;50.904;6.038;2023-07-13T01:52:13;2.85;;;0.90;;
59418;SDS011;45224;50.904;6.038;2023-07-13T01:53:44;3.05;;;0.85;;
59418;SDS011;45224;50.904;6.038;2023-07-13T01:55:14;3.50;;;0.90;;
59418;SDS011;45224;50.904;6.038;2023-07-13T01:56:45;3.45;;;0.90;;
59418;SDS011;45224;50.904;6.038;2023-07-13T01:58:16;3.83;;;0.90;;
59418;SDS011;45224;50.904;6.038;2023-07-13T01:59:46;3.20;;;1.10;;
59418;SDS011;45224;50.904;6.038;2023-07-13T02:01:17;3.22;;;0.90;;
59418;SDS011;45224;50.904;6.038;2023-07-13T02:02:47;4.82;;;1.50;;
59418;SDS011;45224;50.904;6.038;2023-07-13T02:04:18;3.33;;;0.90;;
59418;SDS011;45224;50.904;6.038;2023-07-13T02:05:48;5.40;;;1.13;;
59418;SDS011;45224;50.904;6.038;2023-07-13T02:07:19;4.38;;;1.13;;
59418;SDS011;45224;50.904;6.038;2023-07-13T02:08:49;3.85;;;1.13;;
59418;SDS011;45224;50.904;6.038;2023-07-13T02:10:20;5.57;;;1.20;;
59418;SDS011;45224;50.904;6.038;2023-07-13T02:11:50;2.55;;;0.70;;
59418;SDS011;45224;50.904;6.038;2023-07-13T02:13:21;4.20;;;1.08;;
59418;SDS011;45224;50.904;6.038;2023-07-13T02:14:51;3.03;;;0.82;;
59418;SDS011;45224;50.904;6.038;2023-07-13T02:16:22;3.47;;;1.25;;
59418;SDS011;45224;50.904;6.038;2023-07-13T02:17:53;4.68;;;0.90;;
59418;SDS011;45224;50.904;6.038;2023-07-13T02:19:23;4.68;;;1.80;;
59418;SDS011;45224;50.904;6.038;2023-07-13T02:20:54;3.30;;;0.90;;
59418;SDS011;45224;50.904;6.038;2023-07-13T02:22:24;3.33;;;0.80;;
59418;SDS011;45224;50.904;6.038;2023-07-13T02:23:55;1.88;;;0.80;;
59418;SDS011;45224;50.904;6.038;2023-07-13T02:25:25;2.80;;;1.00;;
59418;SDS011;45224;50.904;6.038;2023-07-13T02:26:56;4.22;;;0.85;;
59418;SDS011;45224;50.904;6.038;2023-07-13T02:28:27;3.40;;;0.90;;
59418;SDS011;45224;50.904;6.038;2023-07-13T02:29:57;3.13;;;1.10;;
59418;SDS011;45224;50.904;6.038;2023-07-13T02:31:28;2.63;;;1.00;;
59418;SDS011;45224;50.904;6.038;2023-07-13T02:32:58;3.97;;;1.00;;
59418;SDS011;45224;50.904;6.038;2023-07-13T02:34:29;3.53;;;1.00;;
59418;SDS011;45224;50.904;6.038;2023-07-13T02:36:00;4.32;;;1.10;;
59418;SDS011;45224;50.904;6.038;2023-07-13T02:37:30;2.30;;;0.90;;
59418;SDS011;45224;50.904;6.038;2023-07-13T02:39:01;3.55;;;1.00;;
59418;SDS011;45224;50.904;6.038;2023-07-13T02:40:34;4.07;;;1.13;;
59418;SDS011;45224;50.904;6.038;2023-07-13T02:42:05;2.47;;;1.25;;
59418;SDS011;45224;50.904;6.038;2023-07-13T02:43:37;2.28;;;0.82;;
59418;SDS011;45224;50.904;6.038;2023-07-13T02:45:07;3.30;;;1.00;;
59418;SDS011;45224;50.904;6.038;2023-07-13T02:46:39;3.13;;;0.93;;
59418;SDS011;45224;50.904;6.038;2023-07-13T02:48:09;2.20;;;0.80;;
59418;SDS011;45224;50.904;6.038;2023-07-13T02:49:40;5.22;;;0.90;;
59418;SDS011;45224;50.904;6.038;2023-07-13T02:51:10;3.97;;;1.20;;
59418;SDS011;45224;50.904;6.038;2023-07-13T02:52:41;3.85;;;1.30;;
59418;SDS011;45224;50.904;6.038;2023-07-13T02:54:12;4.85;;;0.98;;
59418;SDS011;45224;50.904;6.038;2023-07-13T02:55:44;3.67;;;0.88;;
59418;SDS011;45224;50.904;6.038;2023-07-13T02:57:17;4.20;;;1.02;;
59418;SDS011;45224;50.904;6.038;2023-07-13T02:58:48;2.92;;;1.00;;
59418;SDS011;45224;50.904;6.038;2023-07-13T03:00:18;3.47;;;1.15;;
59418;SDS011;45224;50.904;6.038;2023-07-13T03:01:49;2.97;;;1.05;;
59418;SDS011;45224;50.904;6.038;2023-07-13T03:03:19;3.75;;;1.02;;
59418;SDS011;45224;50.904;6.038;2023-07-13T03:04:51;2.38;;;0.93;;
59418;SDS011;45224;50.904;6.038;2023-07-13T03:06:22;3.67;;;1.17;;
59418;SDS011;45224;50.904;6.038;2023-07-13T03:07:57;2.85;;;0.95;;
59418;SDS011;45224;50.904;6.038;2023-07-13T03:09:28;6.00;;;1.27;;
59418;SDS011;45224;50.904;6.038;2023-07-13T03:11:00;3.85;;;1.10;;
59418;SDS011;45224;50.904;6.038;2023-07-13T03:12:32;7.88;;;1.20;;
59418;SDS011;45224;50.904;6.038;2023-07-13T03:14:03;3.22;;;1.33;;
59418;SDS011;45224;50.904;6.038;2023-07-13T03:15:37;3.42;;;0.77;;
59418;SDS011;45224;50.904;6.038;2023-07-13T03:17:08;2.97;;;1.10;;
59418;SDS011;45224;50.904;6.038;2023-07-13T03:18:42;3.05;;;1.20;;
59418;SDS011;45224;50.904;6.038;2023-07-13T03:20:15;3.28;;;1.20;;
59418;SDS011;45224;50.904;6.038;2023-07-13T03:21:46;4.25;;;1.10;;
59418;SDS011;45224;50.904;6.038;2023-07-13T03:23:17;4.40;;;1.38;;
59418;SDS011;45224;50.904;6.038;2023-07-13T03:24:48;3.60;;;1.17;;
59418;SDS011;45224;50.904;6.038;2023-07-13T03:26:19;2.78;;;0.90;;
59418;SDS011;45224;50.904;6.038;2023-07-13T03:27:50;6.80;;;1.33;;
59418;SDS011;45224;50.904;6.038;2023-07-13T03:29:21;3.92;;;1.02;;
59418;SDS011;45224;50.904;6.038;2023-07-13T03:30:58;5.03;;;1.20;;
59418;SDS011;45224;50.904;6.038;2023-07-13T03:32:49;3.58;;;1.00;;
59418;SDS011;45224;50.904;6.038;2023-07-13T03:34:22;3.95;;;1.05;;
59418;SDS011;45224;50.904;6.038;2023-07-13T03:35:53;5.55;;;1.20;;
59418;SDS011;45224;50.904;6.038;2023-07-13T03:37:23;2.28;;;0.95;;
59418;SDS011;45224;50.904;6.038;2023-07-13T03:38:56;4.45;;;1.20;;
59418;SDS011;45224;50.904;6.038;2023-07-13T03:40:31;2.83;;;1.05;;
59418;SDS011;45224;50.904;6.038;2023-07-13T03:42:02;2.80;;;1.05;;
59418;SDS011;45224;50.904;6.038;2023-07-13T03:43:32;3.95;;;0.90;;
59418;SDS011;45224;50.904;6.038;2023-07-13T03:45:03;1.95;;;0.90;;
59418;SDS011;45224;50.904;6.038;2023-07-13T03:46:36;1.65;;;0.82;;
59418;SDS011;45224;50.904;6.038;2023-07-13T03:48:06;2.85;;;1.02;;
59418;SDS011;45224;50.904;6.038;2023-07-13T03:49:37;3.72;;;0.95;;
59418;SDS011;45224;50.904;6.038;2023-07-13T03:51:08;3.92;;;1.13;;
59418;SDS011;45224;50.904;6.038;2023-07-13T03:52:39;3.28;;;1.23;;
59418;SDS011;45224;50.904;6.038;2023-07-13T03:54:09;3.95;;;1.05;;
59418;SDS011;45224;50.904;6.038;2023-07-13T03:55:41;3.03;;;1.58;;
59418;SDS011;45224;50.904;6.038;2023-07-13T03:57:11;3.70;;;1.30;;
59418;SDS011;45224;50.904;6.038;2023-07-13T03:58:43;4.40;;;1.50;;
59418;SDS011;45224;50.904;6.038;2023-07-13T04:00:20;3.72;;;1.08;;
59418;SDS011;45224;50.904;6.038;2023-07-13T04:01:50;3.53;;;1.10;;
59418;SDS011;45224;50.904;6.038;2023-07-13T04:03:21;5.20;;;1.30;;
59418;SDS011;45224;50.904;6.038;2023-07-13T04:04:51;4.20;;;1.13;;
59418;SDS011;45224;50.904;6.038;2023-07-13T04:06:29;4.95;;;0.90;;
59418;SDS011;45224;50.904;6.038;2023-07-13T04:08:09;5.32;;;1.20;;
59418;SDS011;45224;50.904;6.038;2023-07-13T04:09:40;4.53;;;0.98;;
59418;SDS011;45224;50.904;6.038;2023-07-13T04:11:10;3.15;;;1.33;;
59418;SDS011;45224;50.904;6.038;2023-07-13T04:12:41;3.42;;;0.88;;
59418;SDS011;45224;50.904;6.038;2023-07-13T04:14:13;4.30;;;1.10;;
59418;SDS011;45224;50.904;6.038;2023-07-13T04:15:43;4.65;;;1.20;;
59418;SDS011;45224;50.904;6.038;2023-07-13T04:17:14;6.68;;;1.35;;
59418;SDS011;45224;50.904;6.038;2023-07-13T04:18:45;4.22;;;1.20;;
59418;SDS011;45224;50.904;6.038;2023-07-13T04:20:16;4.22;;;1.50;;
59418;SDS011;45224;50.904;6.038;2023-07-13T04:21:47;4.55;;;0.98;;
59418;SDS011;45224;50.904;6.038;2023-07-13T04:23:18;4.72;;;1.02;;
59418;SDS011;45224;50.904;6.038;2023-07-13T04:24:49;4.03;;;1.13;;
59418;SDS011;45224;50.904;6.038;2023-07-13T04:26:19;4.90;;;1.23;;
59418;SDS011;45224;50.904;6.038;2023-07-13T04:27:53;3.90;;;1.00;;
59418;SDS011;45224;50.904;6.038;2023-07-13T04:29:24;9.90;;;1.75;;
59418;SDS011;45224;50.904;6.038;2023-07-13T04:30:54;8.05;;;1.30;;
59418;SDS011;45224;50.904;6.038;2023-07-13T04:32:25;6.05;;;1.08;;
59418;SDS011;45224;50.904;6.038;2023-07-13T04:33:56;4.80;;;1.38;;
59418;SDS011;45224;50.904;6.038;2023-07-13T04:35:26;2.80;;;1.20;;
59418;SDS011;45224;50.904;6.038;2023-07-13T04:36:57;2.10;;;0.95;;
59418;SDS011;45224;50.904;6.038;2023-07-13T04:38:28;4.75;;;1.15;;
59418;SDS011;45224;50.904;6.038;2023-07-13T04:40:00;6.25;;;1.00;;
59418;SDS011;45224;50.904;6.038;2023-07-13T04:41:31;4.68;;;1.48;;
59418;SDS011;45224;50.904;6.038;2023-07-13T04:43:01;3.95;;;1.10;;
59418;SDS011;45224;50.904;6.038;2023-07-13T04:44:32;8.30;;;1.35;;
59418;SDS011;45224;50.904;6.038;2023-07-13T04:46:06;5.85;;;1.75;;
59418;SDS011;45224;50.904;6.038;2023-07-13T04:47:39;3.60;;;1.17;;
59418;SDS011;45224;50.904;6.038;2023-07-13T04:49:10;3.03;;;1.17;;
59418;SDS011;45224;50.904;6.038;2023-07-13T04:50:41;5.93;;;1.20;;
59418;SDS011;45224;50.904;6.038;2023-07-13T04:52:13;2.65;;;1.10;;
59418;SDS011;45224;50.904;6.038;2023-07-13T04:53:44;3.67;;;1.13;;
59418;SDS011;45224;50.904;6.038;2023-07-13T04:55:14;5.18;;;1.17;;
59418;SDS011;45224;50.904;6.038;2023-07-13T04:56:45;3.90;;;0.98;;
59418;SDS011;45224;50.904;6.038;2023-07-13T04:58:15;4.10;;;1.10;;
59418;SDS011;45224;50.904;6.038;2023-07-13T04:59:46;5.88;;;1.25;;
59418;SDS011;45224;50.904;6.038;2023-07-13T05:01:16;3.95;;;1.10;;
59418;SDS011;45224;50.904;6.038;2023-07-13T05:02:47;2.70;;;1.15;;
59418;SDS011;45224;50.904;6.038;2023-07-13T05:04:17;6.57;;;1.40;;
59418;SDS011;45224;50.904;6.038;2023-07-13T05:05:54;2.97;;;1.20;;
59418;SDS011;45224;50.904;6.038;2023-07-13T05:07:29;3.05;;;1.10;;
59418;SDS011;45224;50.904;6.038;2023-07-13T05:09:00;5.28;;;1.27;;
59418;SDS011;45224;50.904;6.038;2023-07-13T05:10:30;6.75;;;1.40;;
59418;SDS011;45224;50.904;6.038;2023-07-13T05:12:01;5.22;;;1.20;;
59418;SDS011;45224;50.904;6.038;2023-07-13T05:13:31;5.60;;;1.20;;
59418;SDS011;45224;50.904;6.038;2023-07-13T05:15:02;7.20;;;1.40;;
59418;SDS011;45224;50.904;6.038;2023-07-13T05:16:33;4.25;;;1.10;;
59418;SDS011;45224;50.904;6.038;2023-07-13T05:18:04;5.05;;;1.40;;
59418;SDS011;45224;50.904;6.038;2023-07-13T05:19:34;5.40;;;1.48;;
59418;SDS011;45224;50.904;6.038;2023-07-13T05:21:07;3.15;;;1.20;;
59418;SDS011;45224;50.904;6.038;2023-07-13T05:22:39;4.65;;;1.25;;
59418;SDS011;45224;50.904;6.038;2023-07-13T05:24:10;4.72;;;1.23;;
59418;SDS011;45224;50.904;6.038;2023-07-13T05:25:40;5.65;;;1.00;;
59418;SDS011;45224;50.904;6.038;2023-07-13T05:27:10;2.63;;;0.75;;
59418;SDS011;45224;50.904;6.038;2023-07-13T05:28:41;3.67;;;1.30;;
59418;SDS011;45224;50.904;6.038;2023-07-13T05:30:12;4.53;;;1.13;;
59418;SDS011;45224;50.904;6.038;2023-07-13T05:31:43;7.90;;;1.30;;
59418;SDS011;45224;50.904;6.038;2023-07-13T05:33:14;2.67;;;1.20;;
59418;SDS011;45224;50.904;6.038;2023-07-13T05:34:44;8.10;;;1.23;;
59418;SDS011;45224;50.904;6.038;2023-07-13T05:36:14;2.70;;;1.30;;
59418;SDS011;45224;50.904;6.038;2023-07-13T05:37:45;5.80;;;1.10;;
59418;SDS011;45224;50.904;6.038;2023-07-13T05:39:16;6.35;;;1.30;;
59418;SDS011;45224;50.904;6.038;2023-07-13T05:40:47;6.75;;;1.75;;
59418;SDS011;45224;50.904;6.038;2023-07-13T05:42:17;3.55;;;1.00;;
59418;SDS011;45224;50.904;6.038;2023-07-13T05:43:48;5.63;;;1.30;;
59418;SDS011;45224;50.904;6.038;2023-07-13T05:45:19;1.67;;;1.00;;
59418;SDS011;45224;50.904;6.038;2023-07-13T05:46:49;4.90;;;1.58;;
59418;SDS011;45224;50.904;6.038;2023-07-13T05:48:20;3.55;;;1.10;;
59418;SDS011;45224;50.904;6.038;2023-07-13T05:49:50;6.05;;;1.30;;
59418;SDS011;45224;50.904;6.038;2023-07-13T05:51:21;5.60;;;1.15;;
59418;SDS011;45224;50.904;6.038;2023-07-13T05:52:51;5.65;;;1.55;;
59418;SDS011;45224;50.904;6.038;2023-07-13T05:54:22;4.00;;;1.35;;
59418;SDS011;45224;50.904;6.038;2023-07-13T05:55:53;6.88;;;1.27;;
59418;SDS011;45224;50.904;6.038;2023-07-13T05:57:24;7.68;;;1.80;;
59418;SDS011;45224;50.904;6.038;2023-07-13T05:58:55;7.60;;;1.55;;
59418;SDS011;45224;50.904;6.038;2023-07-13T06:00:26;7.25;;;1.48;;
59418;SDS011;45224;50.904;6.038;2023-07-13T06:01:57;5.63;;;1.55;;
59418;SDS011;45224;50.904;6.038;2023-07-13T06:03:27;5.05;;;1.20;;
59418;SDS011;45224;50.904;6.038;2023-07-13T06:04:58;4.88;;;1.20;;
59418;SDS011;45224;50.904;6.038;2023-07-13T06:06:28;7.05;;;1.40;;
59418;SDS011;45224;50.904;6.038;2023-07-13T06:07:59;6.10;;;1.67;;
59418;SDS011;45224;50.904;6.038;2023-07-13T06:09:30;6.78;;;1.60;;
59418;SDS011;45224;50.904;6.038;2023-07-13T06:11:04;6.28;;;1.63;;
59418;SDS011;45224;50.904;6.038;2023-07-13T06:12:37;5.00;;;1.38;;
59418;SDS011;45224;50.904;6.038;2023-07-13T06:14:07;6.18;;;1.40;;
59418;SDS011;45224;50.904;6.038;2023-07-13T06:15:38;7.13;;;1.88;;
59418;SDS011;45224;50.904;6.038;2023-07-13T06:17:08;3.67;;;1.33;;
59418;SDS011;45224;50.904;6.038;2023-07-13T06:18:39;4.50;;;1.35;;
59418;SDS011;45224;50.904;6.038;2023-07-13T06:20:10;9.07;;;1.83;;
59418;SDS011;45224;50.904;6.038;2023-07-13T06:21:40;3.40;;;1.33;;
59418;SDS011;45224;50.904;6.038;2023-07-13T06:23:11;10.90;;;1.90;;
59418;SDS011;45224;50.904;6.038;2023-07-13T06:24:41;5.72;;;1.50;;
59418;SDS011;45224;50.904;6.038;2023-07-13T06:26:12;5.72;;;1.30;;
59418;SDS011;45224;50.904;6.038;2023-07-13T06:27:43;4.88;;;1.25;;
59418;SDS011;45224;50.904;6.038;2023-07-13T06:29:13;4.55;;;1.50;;
59418;SDS011;45224;50.904;6.038;2023-07-13T06:30:44;4.25;;;1.40;;
59418;SDS011;45224;50.904;6.038;2023-07-13T06:32:14;4.05;;;1.45;;
59418;SDS011;45224;50.904;6.038;2023-07-13T06:33:45;8.88;;;1.80;;
59418;SDS011;45224;50.904;6.038;2023-07-13T06:35:15;5.35;;;1.85;;
59418;SDS011;45224;50.904;6.038;2023-07-13T06:36:46;6.22;;;1.60;;
59418;SDS011;45224;50.904;6.038;2023-07-13T06:38:16;4.97;;;1.50;;
59418;SDS011;45224;50.904;6.038;2023-07-13T06:39:47;10.43;;;1.73;;
59418;SDS011;45224;50.904;6.038;2023-07-13T06:41:17;3.75;;;1.30;;
59418;SDS011;45224;50.904;6.038;2023-07-13T06:42:48;6.60;;;1.38;;
59418;SDS011;45224;50.904;6.038;2023-07-13T06:44:18;5.85;;;1.70;;
59418;SDS011;45224;50.904;6.038;2023-07-13T06:45:48;7.47;;;1.77;;
59418;SDS011;45224;50.904;6.038;2023-07-13T06:47:20;6.18;;;1.80;;
59418;SDS011;45224;50.904;6.038;2023-07-13T06:48:50;7.43;;;1.83;;
59418;SDS011;45224;50.904;6.038;2023-07-13T06:50:21;5.15;;;2.03;;
59418;SDS011;45224;50.904;6.038;2023-07-13T06:51:51;6.00;;;1.73;;
59418;SDS011;45224;50.904;6.038;2023-07-13T06:53:22;6.13;;;1.80;;
59418;SDS011;45224;50.904;6.038;2023-07-13T06:54:53;9.57;;;1.95;;
59418;SDS011;45224;50.904;6.038;2023-07-13T06:56:23;7.63;;;2.05;;
59418;SDS011;45224;50.904;6.038;2023-07-13T06:57:54;7.55;;;2.10;;
59418;SDS011;45224;50.904;6.038;2023-07-13T06:59:24;7.63;;;2.03;;
59418;SDS011;45224;50.904;6.038;2023-07-13T07:00:56;6.57;;;2.05;;
59418;SDS011;45224;50.904;6.038;2023-07-13T07:02:26;6.07;;;2.08;;
59418;SDS011;45224;50.904;6.038;2023-07-13T07:03:57;7.25;;;2.10;;
59418;SDS011;45224;50.904;6.038;2023-07-13T07:05:27;7.55;;;1.90;;
59418;SDS011;45224;50.904;6.038;2023-07-13T07:06:58;10.27;;;2.35;;
59418;SDS011;45224;50.904;6.038;2023-07-13T07:08:28;9.05;;;2.03;;
59418;SDS011;45224;50.904;6.038;2023-07-13T07:09:59;6.43;;;1.85;;
59418;SDS011;45224;50.904;6.038;2023-07-13T07:11:29;7.50;;;1.90;;
59418;SDS011;45224;50.904;6.038;2023-07-13T07:13:00;15.07;;;2.40;;
59418;SDS011;45224;50.904;6.038;2023-07-13T07:14:31;9.45;;;2.20;;
59418;SDS011;45224;50.904;6.038;2023-07-13T07:16:02;6.70;;;2.00;;
59418;SDS011;45224;50.904;6.038;2023-07-13T07:17:32;7.85;;;1.75;;
59418;SDS011;45224;50.904;6.038;2023-07-13T07:19:03;5.53;;;2.05;;
59418;SDS011;45224;50.904;6.038;2023-07-13T07:20:33;9.57;;;2.50;;
59418;SDS011;45224;50.904;6.038;2023-07-13T07:22:04;9.48;;;2.28;;
59418;SDS011;45224;50.904;6.038;2023-07-13T07:23:34;7.47;;;1.95;;
59418;SDS011;45224;50.904;6.038;2023-07-13T07:25:05;6.85;;;1.80;;
59418;SDS011;45224;50.904;6.038;2023-07-13T07:26:35;9.18;;;2.22;;
59418;SDS011;45224;50.904;6.038;2023-07-13T07:28:06;12.02;;;2.38;;
59418;SDS011;45224;50.904;6.038;2023-07-13T07:29:36;8.05;;;2.13;;
59418;SDS011;45224;50.904;6.038;2023-07-13T07:31:07;8.10;;;1.85;;
59418;SDS011;45224;50.904;6.038;2023-07-13T07:32:38;7.47;;;2.15;;
59418;SDS011;45224;50.904;6.038;2023-07-13T07:34:09;6.93;;;1.80;;
59418;SDS011;45224;50.904;6.038;2023-07-13T07:35:39;6.45;;;2.00;;
59418;SDS011;45224;50.904;6.038;2023-07-13T07:37:11;6.35;;;1.92;;
59418;SDS011;45224;50.904;6.038;2023-07-13T07:38:43;6.40;;;1.95;;
59418;SDS011;45224;50.904;6.038;2023-07-13T07:40:13;8.07;;;1.83;;
59418;SDS011;45224;50.904;6.038;2023-07-13T07:41:44;5.55;;;1.83;;
59418;SDS011;45224;50.904;6.038;2023-07-13T07:43:14;6.32;;;1.60;;
59418;SDS011;45224;50.904;6.038;2023-07-13T07:44:45;6.43;;;2.10;;
59418;SDS011;45224;50.904;6.038;2023-07-13T07:46:15;8.70;;;1.85;;
59418;SDS011;45224;50.904;6.038;2023-07-13T07:47:46;8.18;;;1.92;;
59418;SDS011;45224;50.904;6.038;2023-07-13T07:49:17;4.65;;;1.85;;
59418;SDS011;45224;50.904;6.038;2023-07-13T07:50:47;4.82;;;1.70;;
59418;SDS011;45224;50.904;6.038;2023-07-13T07:52:18;7.82;;;2.20;;
59418;SDS011;45224;50.904;6.038;2023-07-13T07:53:49;7.65;;;1.77;;
59418;SDS011;45224;50.904;6.038;2023-07-13T07:55:19;6.40;;;1.75;;
59418;SDS011;45224;50.904;6.038;2023-07-13T07:56:49;7.43;;;1.88;;
59418;SDS011;45224;50.904;6.038;2023-07-13T07:58:20;6.55;;;1.60;;
59418;SDS011;45224;50.904;6.038;2023-07-13T07:59:51;6.65;;;1.75;;
59418;SDS011;45224;50.904;6.038;2023-07-13T08:01:21;5.72;;;1.80;;
59418;SDS011;45224;50.904;6.038;2023-07-13T08:02:52;6.70;;;1.85;;
59418;SDS011;45224;50.904;6.038;2023-07-13T08:04:22;6.90;;;2.00;;
59418;SDS011;45224;50.904;6.038;2023-07-13T08:05:53;7.13;;;1.80;;
59418;SDS011;45224;50.904;6.038;2023-07-13T08:07:24;6.38;;;1.92;;
59418;SDS011;45224;50.904;6.038;2023-07-13T08:08:54;4.93;;;1.90;;
59418;SDS011;45224;50.904;6.038;2023-07-13T08:10:25;8.23;;;2.10;;
59418;SDS011;45224;50.904;6.038;2023-07-13T08:11:56;6.90;;;2.00;;
59418;SDS011;45224;50.904;6.038;2023-07-13T08:13:27;7.32;;;2.10;;
59418;SDS011;45224;50.904;6.038;2023-07-13T08:14:57;6.75;;;1.90;;
59418;SDS011;45224;50.904;6.038;2023-07-13T08:16:28;4.43;;;1.83;;
59418;SDS011;45224;50.904;6.038;2023-07-13T08:17:58;7.28;;;2.05;;
59418;SDS011;45224;50.904;6.038;2023-07-13T08:19:29;8.05;;;2.20;;
59418;SDS011;45224;50.904;6.038;2023-07-13T08:21:04;5.20;;;1.85;;
59418;SDS011;45224;50.904;6.038;2023-07-13T08:22:35;9.85;;;1.90;;
59418;SDS011;45224;50.904;6.038;2023-07-13T08:24:06;8.02;;;2.15;;
59418;SDS011;45224;50.904;6.038;2023-07-13T08:25:37;8.30;;;1.85;;
59418;SDS011;45224;50.904;6.038;2023-07-13T08:27:07;5.90;;;1.90;;
59418;SDS011;45224;50.904;6.038;2023-07-13T08:28:39;6.72;;;1.80;;
59418;SDS011;45224;50.904;6.038;2023-07-13T08:30:10;3.97;;;1.98;;
59418;SDS011;45224;50.904;6.038;2023-07-13T08:31:40;6.97;;;1.98;;
59418;SDS011;45224;50.904;6.038;2023-07-13T08:33:11;5.60;;;1.77;;
59418;SDS011;45224;50.904;6.038;2023-07-13T08:34:41;7.90;;;2.75;;
59418;SDS011;45224;50.904;6.038;2023-07-13T08:36:12;6.15;;;2.15;;
59418;SDS011;45224;50.904;6.038;2023-07-13T08:37:42;6.22;;;1.83;;
59418;SDS011;45224;50.904;6.038;2023-07-13T08:39:13;6.57;;;1.70;;
59418;SDS011;45224;50.904;6.038;2023-07-13T08:40:44;6.85;;;1.80;;
59418;SDS011;45224;50.904;6.038;2023-07-13T08:42:31;4.78;;;1.98;;
59418;SDS011;45224;50.904;6.038;2023-07-13T08:44:07;5.38;;;1.80;;
59418;SDS011;45224;50.904;6.038;2023-07-13T08:46:05;7.95;;;1.85;;
59418;SDS011;45224;50.904;6.038;2023-07-13T08:47:39;6.15;;;1.63;;
59418;SDS011;45224;50.904;6.038;2023-07-13T08:49:16;5.45;;;1.83;;
59418;SDS011;45224;50.904;6.038;2023-07-13T08:50:57;5.82;;;1.67;;
59418;SDS011;45224;50.904;6.038;2023-07-13T08:52:33;7.10;;;2.05;;
59418;SDS011;45224;50.904;6.038;2023-07-13T08:54:49;7.18;;;1.88;;
59418;SDS011;45224;50.904;6.038;2023-07-13T08:56:19;4.00;;;1.65;;
59418;SDS011;45224;50.904;6.038;2023-07-13T08:57:54;5.40;;;1.60;;
59418;SDS011;45224;50.904;6.038;2023-07-13T08:59:31;4.88;;;2.00;;
59418;SDS011;45224;50.904;6.038;2023-07-13T09:03:02;7.55;;;1.95;;
59418;SDS011;45224;50.904;6.038;2023-07-13T09:04:37;5.68;;;1.65;;
59418;SDS011;45224;50.904;6.038;2023-07-13T09:06:15;3.58;;;1.40;;
59418;SDS011;45224;50.904;6.038;2023-07-13T09:07:55;3.05;;;1.17;;
59418;SDS011;45224;50.904;6.038;2023-07-13T09:09:44;5.15;;;1.58;;
59418;SDS011;45224;50.904;6.038;2023-07-13T09:11:55;7.47;;;2.10;;
59418;SDS011;45224;50.904;6.038;2023-07-13T09:13:36;6.32;;;1.80;;
59418;SDS011;45224;50.904;6.038;2023-07-13T09:16:50;6.68;;;1.52;;
59418;SDS011;45224;50.904;6.038;2023-07-13T09:18:35;4.85;;;1.50;;
59418;SDS011;45224;50.904;6.038;2023-07-13T09:20:42;3.67;;;1.50;;